Time;durP1;ratioP1;P1;durP2;ratioP2;P2;SDS_P1;SDS_P2;PMS_P1;PMS_P2;Temp;Humidity;BMP_temperature;BMP_pressure;BME280_temperature;BME280_humidity;BME280_pressure;Samples;Min_cycle;Max_cycle;Signal;HPM_P1;HPM_P2
2024/01/31 00:00:32;;;;;;;8.65;3.50;;;;;;;10.27;57.12;102939.47;5010749;28;20061;-65
2024/01/31 00:03:00;;;;;;;10.45;3.45;;;;;;;10.11;57.38;102943.16;5009165;28;20069;-64
2024/01/31 00:05:27;;;;;;;8.57;3.85;;;;;;;10.12;57.41;102940.16;5009684;28;20045;-64
2024/01/31 00:07:55;;;;;;;11.40;3.60;;;;;;;10.10;57.54;102938.72;5010352;28;20057;-64
2024/01/31 00:10:22;;;;;;;8.82;3.63;;;;;;;10.29;56.78;102939.25;5007402;28;20050;-60
2024/01/31 00:12:50;;;;;;;9.63;3.88;;;;;;;10.33;56.83;102937.63;5007882;28;20050;-64
2024/01/31 00:15:17;;;;;;;8.63;3.42;;;;;;;10.38;56.63;102935.75;5006184;28;20660;-63
2024/01/31 00:17:45;;;;;;;8.02;3.40;;;;;;;10.10;57.02;102935.97;5008951;28;20782;-63
2024/01/31 00:20:12;;;;;;;7.88;3.47;;;;;;;9.99;57.79;102939.63;5009202;28;20110;-63
2024/01/31 00:22:39;;;;;;;7.95;3.60;;;;;;;10.22;57.19;102939.41;5008043;28;20054;-64
2024/01/31 00:25:07;;;;;;;8.45;3.72;;;;;;;10.53;56.62;102940.63;5009498;28;20058;-65
2024/01/31 00:27:34;;;;;;;11.98;3.55;;;;;;;10.26;56.88;102942.50;5008982;28;20060;-63
2024/01/31 00:30:03;;;;;;;10.85;3.90;;;;;;;9.94;57.49;102937.66;5011688;28;20567;-64
2024/01/31 00:32:31;;;;;;;8.97;4.13;;;;;;;9.74;57.89;102942.91;5023767;28;20434;-64
2024/01/31 00:34:58;;;;;;;8.52;3.58;;;;;;;9.80;58.38;102941.03;5009004;28;20061;-63
2024/01/31 00:37:26;;;;;;;9.68;3.17;;;;;;;9.89;57.88;102936.75;5024026;28;20075;-65
2024/01/31 00:39:53;;;;;;;8.55;3.50;;;;;;;9.90;57.67;102933.75;5007684;28;20066;-64
2024/01/31 00:42:21;;;;;;;8.07;3.05;;;;;;;9.89;57.29;102934.84;5006861;28;20057;-64
2024/01/31 00:44:50;;;;;;;8.93;3.47;;;;;;;9.84;57.66;102923.78;5023381;28;20727;-64
2024/01/31 00:47:17;;;;;;;12.63;3.50;;;;;;;9.83;57.67;102929.53;5008840;28;20054;-64
2024/01/31 00:49:45;;;;;;;9.55;4.13;;;;;;;9.81;57.97;102920.69;5006624;28;20049;-64
2024/01/31 00:52:12;;;;;;;9.45;3.45;;;;;;;9.89;58.07;102926.59;5010466;28;20061;-65
2024/01/31 00:54:40;;;;;;;9.68;3.75;;;;;;;10.05;57.34;102922.13;5009883;28;20061;-64
2024/01/31 00:57:10;;;;;;;8.45;3.33;;;;;;;9.94;57.30;102915.66;5008130;28;20552;-63
2024/01/31 00:59:40;;;;;;;8.25;3.72;;;;;;;9.75;57.94;102916.19;5007988;28;20054;-64
2024/01/31 01:02:07;;;;;;;12.85;3.40;;;;;;;10.17;57.30;102912.66;5008944;28;20050;-63
2024/01/31 01:04:35;;;;;;;8.48;3.50;;;;;;;9.90;57.27;102905.41;5007613;28;20745;-64
2024/01/31 01:07:02;;;;;;;13.65;4.13;;;;;;;9.83;57.52;102911.09;4998686;28;20065;-64
2024/01/31 01:09:30;;;;;;;11.43;3.60;;;;;;;9.83;57.45;102904.78;4988763;28;20050;-63
2024/01/31 01:12:02;;;;;;;16.15;3.78;;;;;;;9.76;57.58;102910.44;4989025;28;20054;-63
2024/01/31 01:14:30;;;;;;;10.98;3.80;;;;;;;9.82;57.83;102912.19;5007757;28;20066;-65
2024/01/31 01:16:57;;;;;;;8.55;3.90;;;;;;;9.85;57.34;102908.09;5007787;28;20049;-63
2024/01/31 01:19:24;;;;;;;10.20;3.10;;;;;;;9.89;57.50;102903.72;5023208;28;20065;-63
2024/01/31 01:21:52;;;;;;;13.07;3.72;;;;;;;9.80;57.47;102905.25;5023762;28;20068;-63
2024/01/31 01:24:19;;;;;;;10.52;3.78;;;;;;;9.92;57.53;102904.06;5008626;28;20060;-63
2024/01/31 01:26:47;;;;;;;9.77;2.97;;;;;;;10.16;56.90;102904.66;5008320;28;20045;-64
2024/01/31 01:29:14;;;;;;;7.72;2.70;;;;;;;10.25;56.17;102905.03;5039043;28;20065;-62
2024/01/31 01:31:42;;;;;;;13.02;3.72;;;;;;;10.06;56.72;102908.09;5005677;28;20066;-61
2024/01/31 01:34:11;;;;;;;9.00;2.65;;;;;;;10.04;56.79;102902.00;5007517;28;20056;-61
2024/01/31 01:36:48;;;;;;;10.75;3.03;;;;;;;10.02;56.93;102895.09;5007317;28;20126;-61
2024/01/31 01:39:16;;;;;;;8.25;3.03;;;;;;;9.96;57.59;102896.13;5022746;28;20054;-61
2024/01/31 01:41:48;;;;;;;9.75;2.83;;;;;;;9.98;57.10;102891.19;5022647;28;20488;-60
2024/01/31 01:44:15;;;;;;;7.30;2.58;;;;;;;10.05;56.39;102900.09;5007906;28;20061;-60
2024/01/31 01:46:43;;;;;;;8.52;3.05;;;;;;;10.12;56.34;102900.75;5007348;28;20682;-59
2024/01/31 01:49:13;;;;;;;9.60;2.92;;;;;;;10.23;55.85;102905.31;5005660;28;20057;-60
2024/01/31 01:51:41;;;;;;;7.40;2.58;;;;;;;10.25;55.64;102896.78;5007897;28;20065;-60
2024/01/31 01:54:12;;;;;;;7.25;2.38;;;;;;;10.28;55.41;102901.75;5006745;28;20049;-62
2024/01/31 01:56:43;;;;;;;5.60;2.60;;;;;;;10.32;55.20;102903.72;5007571;28;20058;-60
2024/01/31 01:59:11;;;;;;;9.40;2.70;;;;;;;9.74;56.72;102909.03;5007870;28;20057;-60
2024/01/31 02:01:39;;;;;;;10.23;2.30;;;;;;;9.72;57.06;102902.97;5007914;28;20065;-60
2024/01/31 02:04:08;;;;;;;7.80;2.38;;;;;;;9.80;57.18;102908.84;5007934;28;20061;-61
2024/01/31 02:06:35;;;;;;;13.27;2.72;;;;;;;9.95;56.92;102900.81;5007259;28;20064;-60
2024/01/31 02:09:03;;;;;;;6.18;2.38;;;;;;;10.01;56.73;102901.69;5007587;28;20061;-61
2024/01/31 02:11:31;;;;;;;10.48;2.70;;;;;;;10.12;56.55;102889.75;5007278;28;20058;-60
2024/01/31 02:13:59;;;;;;;10.35;3.35;;;;;;;10.19;56.38;102887.63;5016859;28;20073;-61
2024/01/31 02:16:26;;;;;;;8.27;2.58;;;;;;;10.14;56.49;102876.56;5017959;28;20050;-60
2024/01/31 02:18:53;;;;;;;10.68;2.75;;;;;;;10.37;56.04;102876.25;4991160;28;20054;-60
2024/01/31 02:21:23;;;;;;;11.48;3.08;;;;;;;10.36;55.87;102880.09;5021330;28;20053;-62
2024/01/31 02:23:50;;;;;;;13.43;3.33;;;;;;;10.27;56.17;102878.06;5007385;28;20057;-60
2024/01/31 02:26:17;;;;;;;8.65;3.25;;;;;;;10.08;56.54;102885.78;5006963;28;20060;-61
2024/01/31 02:28:45;;;;;;;7.45;2.80;;;;;;;10.09;56.74;102884.75;5038603;28;20058;-61
2024/01/31 02:31:12;;;;;;;10.68;3.15;;;;;;;10.24;56.28;102879.41;5006184;28;20436;-61
2024/01/31 02:33:40;;;;;;;8.57;3.00;;;;;;;10.14;56.44;102884.81;5007135;28;20073;-60
2024/01/31 02:36:07;;;;;;;10.50;3.10;;;;;;;10.01;56.78;102886.00;5006907;28;20489;-60
2024/01/31 02:38:34;;;;;;;10.75;3.10;;;;;;;10.03;56.91;102896.75;5006910;28;20113;-60
2024/01/31 02:41:02;;;;;;;8.07;3.42;;;;;;;10.12;56.29;102893.34;5007063;28;20054;-59
2024/01/31 02:43:29;;;;;;;10.20;3.03;;;;;;;10.15;56.19;102891.97;5008907;28;20053;-61
2024/01/31 02:45:56;;;;;;;8.68;3.15;;;;;;;9.96;56.89;102893.34;5010309;28;20046;-60
2024/01/31 02:48:24;;;;;;;10.43;3.10;;;;;;;10.02;56.89;102898.66;5008809;28;20579;-60
2024/01/31 02:50:52;;;;;;;8.23;3.33;;;;;;;9.97;56.86;102895.03;4992331;28;20050;-60
2024/01/31 02:53:20;;;;;;;10.20;4.00;;;;;;;10.26;56.11;102895.66;5010463;28;20060;-60
2024/01/31 02:55:47;;;;;;;8.07;3.10;;;;;;;10.19;56.31;102887.63;5010653;28;20054;-60
2024/01/31 02:58:14;;;;;;;11.27;3.60;;;;;;;9.93;57.16;102902.13;5010751;28;20080;-60
2024/01/31 03:00:42;;;;;;;9.40;3.05;;;;;;;10.04;56.78;102904.75;5008775;28;20069;-60
2024/01/31 03:03:09;;;;;;;9.65;3.55;;;;;;;9.70;57.78;102910.63;5005107;28;20060;-59
2024/01/31 03:05:37;;;;;;;8.27;3.13;;;;;;;9.69;58.34;102906.22;5005925;28;20778;-60
2024/01/31 03:08:04;;;;;;;9.57;3.25;;;;;;;9.92;57.63;102908.75;5007923;28;20045;-61
2024/01/31 03:10:32;;;;;;;6.95;2.92;;;;;;;9.95;57.54;102903.56;5022552;28;20058;-60
2024/01/31 03:13:00;;;;;;;10.32;3.28;;;;;;;10.13;57.28;102911.50;5009886;28;20060;-61
2024/01/31 03:15:27;;;;;;;8.05;2.90;;;;;;;10.03;57.16;102914.13;5009981;28;20054;-61
2024/01/31 03:17:54;;;;;;;10.30;3.15;;;;;;;10.12;57.10;102915.38;5007869;28;20702;-61
2024/01/31 03:20:22;;;;;;;9.18;2.95;;;;;;;10.09;56.54;102910.34;5000292;28;20121;-61
2024/01/31 03:22:49;;;;;;;11.32;2.90;;;;;;;10.08;56.74;102911.44;5000921;28;20560;-60
2024/01/31 03:25:16;;;;;;;5.43;2.55;;;;;;;10.17;56.56;102917.34;5010006;28;20054;-60
2024/01/31 03:27:43;;;;;;;12.57;3.08;;;;;;;10.08;56.53;102908.69;5007361;28;20053;-60
2024/01/31 03:30:11;;;;;;;9.20;3.03;;;;;;;10.04;56.53;102914.97;4991888;28;20142;-60
2024/01/31 03:32:38;;;;;;;8.73;2.70;;;;;;;10.20;56.63;102909.38;5035924;28;20054;-60
2024/01/31 03:35:07;;;;;;;9.65;3.47;;;;;;;10.05;56.36;102913.84;5052779;28;20350;-61
2024/01/31 03:37:34;;;;;;;7.88;2.72;;;;;;;10.00;56.55;102911.88;5027431;28;20060;-60
2024/01/31 03:40:07;;;;;;;8.43;2.60;;;;;;;10.04;56.43;102918.53;5029101;28;20064;-61
2024/01/31 03:42:35;;;;;;;13.05;3.10;;;;;;;10.32;55.36;102925.75;5021401;28;20500;-61
2024/01/31 03:45:04;;;;;;;9.25;2.80;;;;;;;9.99;55.87;102920.38;5024952;28;20062;-60
2024/01/31 03:47:34;;;;;;;9.85;2.50;;;;;;;9.72;56.23;102920.31;5012220;28;20049;-60
2024/01/31 03:50:02;;;;;;;;;;;;;;;9.48;56.82;102915.28;5014971;28;20060;-60
2024/01/31 03:52:30;;;;;;;8.32;2.33;;;;;;;9.50;56.96;102924.91;5004999;28;19926;-60
2024/01/31 03:54:58;;;;;;;9.40;2.47;;;;;;;9.68;56.89;102918.31;4996661;28;20058;-63
2024/01/31 03:57:25;;;;;;;5.72;2.28;;;;;;;9.76;56.01;102921.44;5009018;28;20061;-60
2024/01/31 03:59:52;;;;;;;16.58;2.55;;;;;;;9.81;56.05;102924.28;5023696;28;20060;-61
2024/01/31 04:02:22;;;;;;;7.00;2.50;;;;;;;9.79;55.62;102934.72;5007165;28;20688;-60
2024/01/31 04:04:49;;;;;;;8.60;2.30;;;;;;;9.58;56.34;102935.50;4974512;28;20449;-61
2024/01/31 04:07:16;;;;;;;12.75;3.25;;;;;;;9.69;56.13;102939.25;5008534;28;20050;-60
2024/01/31 04:09:44;;;;;;;8.45;2.67;;;;;;;9.57;55.90;102939.34;5007583;28;20050;-61
2024/01/31 04:12:11;;;;;;;8.70;2.45;;;;;;;9.65;55.88;102936.16;5006859;28;20062;-60
2024/01/31 04:14:38;;;;;;;11.55;2.88;;;;;;;9.87;55.54;102938.94;5009145;28;20057;-60
2024/01/31 04:17:06;;;;;;;9.25;3.08;;;;;;;9.95;55.03;102946.78;5032562;28;20058;-61
2024/01/31 04:19:33;;;;;;;5.93;2.03;;;;;;;9.85;55.42;102944.69;4987322;28;20058;-60
2024/01/31 04:22:02;;;;;;;5.38;1.90;;;;;;;9.77;55.80;102947.06;5003888;28;20050;-61
2024/01/31 04:24:29;;;;;;;10.75;2.67;;;;;;;9.67;55.80;102945.00;4989542;28;20103;-61
2024/01/31 04:26:56;;;;;;;7.88;2.40;;;;;;;9.47;55.56;102935.59;4988994;28;20867;-61
2024/01/31 04:29:23;;;;;;;9.52;2.67;;;;;;;9.24;55.98;102944.06;4988630;28;20054;-61
2024/01/31 04:31:56;;;;;;;9.48;2.45;;;;;;;9.17;56.37;102935.13;4987669;28;20601;-60
2024/01/31 04:34:23;;;;;;;6.38;2.17;;;;;;;8.85;57.04;102940.38;5016662;28;20057;-61
2024/01/31 04:36:51;;;;;;;10.85;2.28;;;;;;;9.02;56.99;102933.81;5003900;28;20520;-61
2024/01/31 04:39:18;;;;;;;8.95;2.28;;;;;;;8.97;56.97;102933.72;5002795;28;20054;-61
2024/01/31 04:41:47;;;;;;;7.57;2.40;;;;;;;8.97;57.00;102943.88;4988971;28;20058;-61
2024/01/31 04:44:14;;;;;;;6.82;1.92;;;;;;;9.15;56.43;102945.56;4988455;28;20062;-61
2024/01/31 04:46:41;;;;;;;11.02;2.53;;;;;;;8.88;57.05;102937.13;4988602;28;20054;-60
2024/01/31 04:49:09;;;;;;;9.82;2.22;;;;;;;9.20;56.75;102940.13;5019279;28;20065;-61
2024/01/31 04:51:41;;;;;;;7.85;2.30;;;;;;;9.18;56.06;102931.28;5019541;28;20489;-62
2024/01/31 04:54:08;;;;;;;9.63;2.45;;;;;;;9.17;56.17;102933.19;4991230;28;20050;-60
2024/01/31 04:56:36;;;;;;;7.10;2.30;;;;;;;9.34;55.77;102927.72;5007676;28;20058;-60
2024/01/31 04:59:03;;;;;;;6.35;2.03;;;;;;;9.36;55.80;102917.28;5006992;28;20054;-59
2024/01/31 05:01:30;;;;;;;12.75;2.15;;;;;;;9.26;55.90;102925.41;5006930;28;20057;-60
2024/01/31 05:03:58;;;;;;;8.75;2.33;;;;;;;9.52;55.38;102922.75;5005672;28;20057;-61
2024/01/31 05:06:25;;;;;;;9.02;2.50;;;;;;;9.48;55.49;102910.63;5006140;28;20683;-61
2024/01/31 05:08:53;;;;;;;8.50;1.90;;;;;;;9.63;55.58;102907.22;5006202;28;20049;-61
2024/01/31 05:11:20;;;;;;;8.35;2.30;;;;;;;9.59;55.39;102904.16;5022615;28;20505;-60
2024/01/31 05:13:47;;;;;;;10.00;2.50;;;;;;;9.52;55.20;102908.19;4988501;28;20069;-60
2024/01/31 05:16:18;;;;;;;9.60;2.17;;;;;;;9.45;55.81;102904.78;5018368;28;20097;-60
2024/01/31 05:18:45;;;;;;;10.98;2.30;;;;;;;9.62;55.01;102898.16;5002369;28;20061;-60
2024/01/31 05:21:12;;;;;;;11.00;2.28;;;;;;;9.74;54.81;102903.53;5014566;28;20058;-60
2024/01/31 05:23:40;;;;;;;7.57;2.10;;;;;;;9.76;54.50;102893.13;5022343;28;20065;-61
2024/01/31 05:26:08;;;;;;;11.75;2.60;;;;;;;9.80;54.44;102900.59;5007050;28;20041;-61
2024/01/31 05:28:39;;;;;;;6.47;2.03;;;;;;;9.74;54.79;102889.78;5005918;28;20058;-59
2024/01/31 05:31:06;;;;;;;8.27;2.75;;;;;;;9.72;54.76;102891.94;5008163;28;20057;-60
2024/01/31 05:33:34;;;;;;;8.93;2.50;;;;;;;9.78;54.34;102896.44;5007547;28;20058;-61
2024/01/31 05:36:02;;;;;;;7.43;2.20;;;;;;;9.66;55.00;102892.97;5030912;28;20054;-61
2024/01/31 05:38:30;;;;;;;6.10;2.33;;;;;;;9.43;55.47;102904.19;5007395;28;20054;-61
2024/01/31 05:40:57;;;;;;;13.88;2.33;;;;;;;9.79;54.53;102895.34;5007256;28;20060;-60
2024/01/31 05:43:24;;;;;;;10.73;2.28;;;;;;;9.54;55.13;102890.31;5010478;28;20059;-60
2024/01/31 05:45:52;;;;;;;7.82;2.35;;;;;;;9.59;55.33;102897.84;5026434;28;20064;-61
2024/01/31 05:48:19;;;;;;;11.57;2.65;;;;;;;9.80;54.96;102894.25;5026350;28;20049;-61
2024/01/31 05:50:47;;;;;;;7.00;2.00;;;;;;;9.59;54.98;102892.34;5017705;28;20058;-61
2024/01/31 05:53:14;;;;;;;11.60;3.20;;;;;;;9.38;55.95;102891.19;5007005;28;20061;-61
2024/01/31 05:55:41;;;;;;;8.77;2.40;;;;;;;9.41;55.73;102898.13;5005884;28;20057;-60
2024/01/31 05:58:09;;;;;;;7.22;2.60;;;;;;;9.50;55.53;102886.41;5004613;28;20042;-60
2024/01/31 06:00:37;;;;;;;7.40;2.20;;;;;;;9.58;55.49;102890.66;5006967;28;20061;-60
2024/01/31 06:03:04;;;;;;;9.35;2.58;;;;;;;9.45;55.99;102894.59;4973138;28;20054;-60
2024/01/31 06:05:32;;;;;;;9.05;2.20;;;;;;;9.52;56.22;102883.44;5006933;28;20057;-60
2024/01/31 06:07:59;;;;;;;15.07;2.60;;;;;;;9.58;55.75;102871.41;5007123;28;20050;-62
2024/01/31 06:10:29;;;;;;;12.85;3.10;;;;;;;9.80;55.32;102874.97;5007266;28;20053;-60
2024/01/31 06:12:56;;;;;;;10.27;2.53;;;;;;;9.46;55.83;102876.19;5022166;28;20057;-63
2024/01/31 06:15:25;;;;;;;14.43;3.13;;;;;;;9.46;56.39;102867.94;5007400;28;20061;-62
2024/01/31 06:17:52;;;;;;;9.88;3.10;;;;;;;9.54;56.43;102872.97;5009928;28;20049;-63
2024/01/31 06:20:20;;;;;;;7.05;2.67;;;;;;;9.64;56.06;102867.63;5010432;28;20731;-64
2024/01/31 06:22:47;;;;;;;9.55;2.70;;;;;;;9.63;56.05;102863.19;4976502;28;20064;-64
2024/01/31 06:25:14;;;;;;;12.63;3.67;;;;;;;9.38;56.67;102857.38;5025631;28;20605;-64
2024/01/31 06:27:42;;;;;;;9.18;2.90;;;;;;;9.51;56.47;102862.50;5008971;28;20053;-65
2024/01/31 06:30:19;;;;;;;11.90;3.22;;;;;;;9.29;57.07;102858.88;5010122;28;20051;-63
2024/01/31 06:32:47;;;;;;;11.98;3.50;;;;;;;9.34;57.15;102853.47;5001735;28;20069;-63
2024/01/31 06:35:15;;;;;;;11.02;3.78;;;;;;;9.31;57.32;102859.47;5007749;28;20246;-63
2024/01/31 06:37:42;;;;;;;16.63;3.97;;;;;;;8.98;58.28;102872.16;5041787;28;20064;-64
2024/01/31 06:40:10;;;;;;;11.63;4.10;;;;;;;9.34;57.59;102865.28;5010415;28;20054;-64
2024/01/31 06:42:38;;;;;;;15.50;3.80;;;;;;;9.39;57.46;102862.63;5009652;28;20054;-65
2024/01/31 06:45:05;;;;;;;12.13;3.15;;;;;;;9.38;56.96;102855.44;5010016;28;20049;-64
2024/01/31 06:47:33;;;;;;;10.45;3.33;;;;;;;9.16;57.89;102864.72;5025161;28;20065;-64
2024/01/31 06:50:01;;;;;;;11.82;3.60;;;;;;;9.00;58.46;102877.41;5008322;28;20057;-63
2024/01/31 06:52:28;;;;;;;14.98;3.47;;;;;;;9.09;58.66;102870.41;5003526;28;20062;-63
2024/01/31 06:54:56;;;;;;;9.32;3.47;;;;;;;9.13;58.53;102873.47;5009852;28;20045;-64
2024/01/31 06:57:23;;;;;;;9.45;3.42;;;;;;;9.14;58.81;102859.47;5009910;28;20049;-60
2024/01/31 06:59:50;;;;;;;12.95;3.75;;;;;;;9.21;58.20;102868.38;4975858;28;20057;-60
2024/01/31 07:02:17;;;;;;;13.35;3.97;;;;;;;9.28;58.09;102876.44;5009213;28;20054;-60
2024/01/31 07:04:45;;;;;;;10.18;3.17;;;;;;;9.30;58.18;102872.38;5009713;28;20050;-60
2024/01/31 07:07:12;;;;;;;10.05;3.83;;;;;;;9.37;58.06;102869.44;5015213;28;20061;-61
2024/01/31 07:09:40;;;;;;;11.18;4.07;;;;;;;9.21;58.42;102884.03;5013713;28;20063;-62
2024/01/31 07:12:07;;;;;;;10.52;3.80;;;;;;;9.40;57.96;102877.19;5041682;28;20058;-60
2024/01/31 07:14:34;;;;;;;12.27;4.18;;;;;;;9.15;59.19;102874.06;5009819;28;20058;-61
2024/01/31 07:17:01;;;;;;;12.68;3.83;;;;;;;9.25;58.66;102875.06;5041166;28;20064;-61
2024/01/31 07:19:29;;;;;;;11.35;3.90;;;;;;;9.42;58.72;102875.84;5007753;28;20057;-65
2024/01/31 07:21:56;;;;;;;11.00;3.90;;;;;;;9.40;58.47;102874.44;5009979;28;20084;-61
2024/01/31 07:24:23;;;;;;;12.63;4.32;;;;;;;9.34;59.18;102883.72;5009842;28;20085;-60
2024/01/31 07:26:56;;;;;;;9.10;4.10;;;;;;;9.23;59.59;102887.38;5009771;28;20064;-62
2024/01/31 07:29:26;;;;;;;13.63;5.15;;;;;;;8.97;60.67;102892.50;5007818;28;20057;-61
2024/01/31 07:31:53;;;;;;;15.98;5.05;;;;;;;9.05;60.80;102899.47;5024865;28;20073;-61
2024/01/31 07:34:21;;;;;;;16.27;5.38;;;;;;;9.07;60.51;102906.41;5008182;28;20050;-61
2024/01/31 07:36:49;;;;;;;16.05;5.22;;;;;;;9.18;60.58;102909.31;5008722;28;20045;-60
2024/01/31 07:39:16;;;;;;;16.60;4.75;;;;;;;9.03;61.21;102896.16;5040006;28;20061;-60
2024/01/31 07:41:44;;;;;;;11.82;5.00;;;;;;;9.25;60.68;102901.72;5008026;28;20081;-60
2024/01/31 07:44:15;;;;;;;18.23;4.57;;;;;;;9.28;60.68;102917.69;5041176;28;20065;-67
2024/01/31 07:46:45;;;;;;;15.60;5.13;;;;;;;9.17;61.15;102924.94;5044700;28;20057;-67
2024/01/31 07:49:13;;;;;;;16.73;5.90;;;;;;;9.09;61.63;102915.22;5007206;28;20045;-61
2024/01/31 07:51:42;;;;;;;12.75;5.30;;;;;;;9.15;61.46;102912.56;5008097;28;20530;-61
2024/01/31 07:54:09;;;;;;;17.23;5.53;;;;;;;9.29;61.21;102913.88;5007706;28;20053;-60
2024/01/31 07:56:45;;;;;;;18.05;5.47;;;;;;;9.34;61.00;102917.56;5010125;28;20073;-64
2024/01/31 07:59:24;;;;;;;19.05;5.18;;;;;;;9.19;61.35;102913.72;4996492;28;20041;-62
2024/01/31 08:01:51;;;;;;;22.02;5.85;;;;;;;9.25;61.71;102910.81;5040689;28;20053;-60
2024/01/31 08:04:19;;;;;;;16.33;5.43;;;;;;;9.19;61.89;102891.72;5053439;28;20058;-61
2024/01/31 08:06:46;;;;;;;21.83;6.03;;;;;;;9.19;62.15;102886.22;5030779;28;20057;-61
2024/01/31 08:09:15;;;;;;;14.57;5.70;;;;;;;9.24;62.24;102889.88;5012287;28;20149;-62
2024/01/31 08:11:49;;;;;;;13.23;5.75;;;;;;;9.02;62.48;102889.81;5004523;28;20054;-61
2024/01/31 08:14:20;;;;;;;14.93;6.32;;;;;;;9.04;62.57;102886.81;5011402;28;20585;-62
2024/01/31 08:16:50;;;;;;;16.92;6.43;;;;;;;8.84;63.59;102887.31;5006477;28;20061;-64
2024/01/31 08:19:17;;;;;;;;;;;;;;;8.88;63.72;102884.91;5019202;28;20061;-64
2024/01/31 08:21:45;;;;;;;17.08;6.47;;;;;;;8.75;64.07;102888.78;5030492;28;20519;-65
2024/01/31 08:24:15;;;;;;;23.20;6.30;;;;;;;8.98;63.84;102879.56;5039320;28;20049;-64
2024/01/31 08:26:42;;;;;;;18.30;5.80;;;;;;;9.00;63.18;102870.00;5008653;28;20053;-64
2024/01/31 08:29:10;;;;;;;27.38;6.13;;;;;;;8.89;64.09;102881.91;5008916;28;20076;-62
2024/01/31 08:31:52;;;;;;;24.23;6.10;;;;;;;8.93;64.18;102879.47;5036768;28;20050;-61
2024/01/31 08:34:20;;;;;;;21.13;5.65;;;;;;;8.99;64.43;102876.59;5039323;28;20817;-60
2024/01/31 08:36:48;;;;;;;20.73;5.60;;;;;;;9.18;64.47;102887.31;5009938;28;20061;-61
2024/01/31 08:39:15;;;;;;;17.60;5.38;;;;;;;9.45;63.84;102894.59;5000783;28;20058;-65
2024/01/31 08:41:44;;;;;;;17.80;5.80;;;;;;;9.33;64.03;102898.56;5015036;28;20060;-66
2024/01/31 08:44:11;;;;;;;17.73;6.82;;;;;;;9.37;64.32;102903.28;5011044;28;20054;-65
2024/01/31 08:46:39;;;;;;;17.80;6.43;;;;;;;9.33;64.54;102904.06;5005796;28;20505;-64
2024/01/31 08:49:24;;;;;;;18.33;6.00;;;;;;;9.61;64.26;102906.66;5006071;28;20034;-61
2024/01/31 08:51:53;;;;;;;19.38;6.80;;;;;;;9.50;64.50;102888.34;5003116;28;20045;-61
2024/01/31 08:54:21;;;;;;;17.67;6.45;;;;;;;9.39;65.30;102903.03;5011063;28;20050;-61
2024/01/31 08:56:48;;;;;;;15.10;6.07;;;;;;;9.14;65.99;102897.97;5006509;28;20046;-60
2024/01/31 08:59:17;;;;;;;17.00;6.30;;;;;;;9.46;65.75;102898.19;5031662;28;20045;-63
2024/01/31 09:01:45;;;;;;;16.73;6.13;;;;;;;9.60;65.93;102897.59;5009920;28;20060;-63
2024/01/31 09:04:13;;;;;;;19.98;6.93;;;;;;;9.75;65.88;102905.19;5008541;28;20418;-65
2024/01/31 09:06:41;;;;;;;14.25;5.72;;;;;;;9.84;66.27;102911.94;5023578;28;20058;-61
2024/01/31 09:09:09;;;;;;;21.10;6.72;;;;;;;9.61;67.29;102921.25;5008863;28;20156;-60
2024/01/31 09:11:36;;;;;;;24.17;6.38;;;;;;;9.54;67.90;102928.00;5037045;28;20061;-60
2024/01/31 09:14:03;;;;;;;17.98;6.50;;;;;;;9.75;68.03;102924.44;4995147;28;20050;-64
2024/01/31 09:16:31;;;;;;;23.77;9.43;;;;;;;10.07;67.35;102929.03;4997354;28;20080;-60
2024/01/31 09:18:58;;;;;;;21.48;7.38;;;;;;;10.17;67.02;102926.44;5040683;28;20045;-60
2024/01/31 09:21:27;;;;;;;21.27;6.93;;;;;;;10.16;67.30;102919.25;5037348;28;20061;-64
2024/01/31 09:23:54;;;;;;;17.48;7.05;;;;;;;10.30;67.63;102914.19;5010233;28;20046;-64
2024/01/31 09:26:22;;;;;;;16.70;6.60;;;;;;;10.49;67.44;102918.25;4991208;28;20113;-64
2024/01/31 09:28:50;;;;;;;18.33;6.38;;;;;;;10.41;67.97;102910.44;5036706;28;20058;-62
2024/01/31 09:31:22;;;;;;;19.33;7.93;;;;;;;10.46;69.02;102917.94;5007506;28;20045;-62
2024/01/31 09:33:50;;;;;;;21.40;6.97;;;;;;;10.82;68.14;102906.19;5039224;28;20490;-61
2024/01/31 09:36:18;;;;;;;18.25;6.47;;;;;;;10.95;68.17;102903.81;5022524;28;20053;-62
2024/01/31 09:38:47;;;;;;;18.60;6.75;;;;;;;10.69;68.39;102904.69;5028586;28;20053;-60
2024/01/31 09:41:19;;;;;;;18.98;6.10;;;;;;;10.68;68.85;102894.75;5012564;28;20058;-60
2024/01/31 09:43:47;;;;;;;13.60;5.88;;;;;;;10.57;69.34;102889.38;5007478;28;20058;-60
2024/01/31 09:46:15;;;;;;;15.40;6.28;;;;;;;10.61;70.51;102885.88;5024086;28;20080;-60
2024/01/31 09:48:43;;;;;;;16.10;6.50;;;;;;;10.49;70.89;102885.19;5042434;28;20673;-61
2024/01/31 09:51:11;;;;;;;16.88;6.07;;;;;;;10.58;71.57;102874.53;5011709;28;20045;-60
2024/01/31 09:53:39;;;;;;;14.75;6.53;;;;;;;10.39;72.76;102884.25;5006055;28;20600;-60
2024/01/31 09:56:07;;;;;;;15.45;6.60;;;;;;;10.21;73.90;102877.19;5012366;28;20053;-60
2024/01/31 09:58:34;;;;;;;14.82;6.85;;;;;;;10.37;73.83;102875.41;5015294;28;20054;-59
2024/01/31 10:01:03;;;;;;;18.05;6.88;;;;;;;10.41;73.82;102880.13;5014896;28;20046;-60
2024/01/31 10:03:41;;;;;;;29.13;15.30;;;;;;;10.64;73.04;102871.56;5013212;28;20192;-59
2024/01/31 10:06:08;;;;;;;16.05;7.85;;;;;;;10.66;73.18;102868.53;5014686;28;20065;-60
2024/01/31 10:08:39;;;;;;;26.35;7.72;;;;;;;10.82;73.23;102871.19;5045212;28;20046;-60
2024/01/31 10:11:07;;;;;;;16.90;7.50;;;;;;;10.76;73.46;102866.72;5014798;28;20055;-58
2024/01/31 10:13:35;;;;;;;16.40;7.50;;;;;;;10.80;73.22;102862.34;5015532;28;20049;-60
2024/01/31 10:16:02;;;;;;;14.05;7.50;;;;;;;10.70;73.56;102848.47;5013216;28;20456;-60
2024/01/31 10:18:30;;;;;;;18.42;8.70;;;;;;;10.68;73.47;102847.91;5027516;28;20062;-61
2024/01/31 10:20:58;;;;;;;18.83;8.18;;;;;;;10.62;73.77;102854.44;5009885;28;20046;-59
2024/01/31 10:23:25;;;;;;;18.55;8.80;;;;;;;10.59;73.71;102854.13;5009800;28;20054;-60
2024/01/31 10:25:55;;;;;;;19.73;8.90;;;;;;;10.72;74.11;102853.72;5002868;28;20057;-57
2024/01/31 10:28:23;;;;;;;17.83;8.43;;;;;;;10.56;74.11;102851.91;5010348;28;20062;-59
2024/01/31 10:30:51;;;;;;;19.70;8.63;;;;;;;10.93;73.56;102850.03;5013509;28;20053;-58
2024/01/31 10:33:20;;;;;;;21.00;8.43;;;;;;;10.79;73.32;102849.63;5043419;28;20069;-60
2024/01/31 10:35:48;;;;;;;16.58;8.50;;;;;;;10.85;74.24;102847.75;5027348;28;20054;-60
2024/01/31 10:38:39;;;;;;;19.40;8.52;;;;;;;10.63;75.00;102847.88;5022088;28;20055;-62
2024/01/31 10:41:10;;;;;;;19.52;8.93;;;;;;;10.60;76.24;102840.09;5012080;28;20052;-60
2024/01/31 10:43:37;;;;;;;15.95;10.10;;;;;;;10.86;75.53;102844.72;5043672;28;20049;-61
2024/01/31 10:46:04;;;;;;;20.30;12.38;;;;;;;10.68;76.83;102844.31;4985874;28;20045;-60
2024/01/31 10:48:32;;;;;;;18.77;9.85;;;;;;;10.64;77.64;102840.41;5001167;28;20612;-61
2024/01/31 10:51:01;;;;;;;20.63;9.45;;;;;;;11.02;76.52;102842.91;5011948;28;20042;-60
2024/01/31 10:53:29;;;;;;;15.55;8.80;;;;;;;11.06;76.94;102836.63;5012380;28;20065;-60
2024/01/31 10:55:57;;;;;;;15.30;9.20;;;;;;;11.02;77.27;102835.47;5042701;28;20042;-59
2024/01/31 10:58:29;;;;;;;19.52;9.75;;;;;;;10.98;77.66;102844.56;5007519;28;20057;-60
2024/01/31 11:00:56;;;;;;;27.52;16.77;;;;;;;11.15;77.23;102835.03;5010970;28;20045;-60
2024/01/31 11:03:24;;;;;;;15.38;8.18;;;;;;;11.04;78.09;102843.50;5032732;28;20058;-60
2024/01/31 11:05:51;;;;;;;17.80;8.20;;;;;;;11.20;78.10;102823.19;5007456;28;20053;-60
2024/01/31 11:08:20;;;;;;;17.25;9.32;;;;;;;11.16;78.23;102831.16;5039926;28;20049;-60
2024/01/31 11:10:48;;;;;;;19.20;9.02;;;;;;;11.20;77.93;102831.47;5042827;28;20053;-60
2024/01/31 11:13:16;;;;;;;19.17;9.80;;;;;;;11.07;78.60;102834.72;5011992;28;20061;-62
2024/01/31 11:15:43;;;;;;;19.13;8.90;;;;;;;11.18;78.54;102833.66;5012010;28;20042;-63
2024/01/31 11:18:14;;;;;;;17.42;10.20;;;;;;;11.28;78.22;102830.97;5027793;28;20050;-63
2024/01/31 11:20:44;;;;;;;18.85;10.05;;;;;;;11.39;77.84;102835.44;5012404;28;20533;-63
2024/01/31 11:23:23;;;;;;;25.17;14.90;;;;;;;11.57;77.24;102831.41;4982177;28;20070;-63
2024/01/31 11:25:51;;;;;;;29.63;17.85;;;;;;;11.36;77.82;102824.94;5010045;28;20136;-62
2024/01/31 11:28:20;;;;;;;23.80;14.20;;;;;;;11.38;77.68;102827.44;5043201;28;20069;-64